createdAt,value
2023-03-11T00:00:35.789Z,93182.50
2023-03-11T00:03:05.210Z,93208.91
2023-03-11T00:05:33.996Z,93224.78
2023-03-11T00:08:01.026Z,93220.28
2023-03-11T00:10:36.514Z,93231.66
2023-03-11T00:13:03.556Z,93198.34
2023-03-11T00:15:32.702Z,93197.28
2023-03-11T00:18:02.952Z,93207.09
2023-03-11T00:20:35.117Z,93182.50
2023-03-11T00:23:02.134Z,93193.06
2023-03-11T00:25:33.184Z,93179.84
2023-03-11T00:28:00.090Z,93198.34
2023-03-11T00:30:30.015Z,93193.88
2023-03-11T00:32:57.852Z,93198.34
2023-03-11T00:35:28.422Z,93193.06
2023-03-11T00:37:58.937Z,93191.47
2023-03-11T00:40:26.931Z,93184.34
2023-03-11T00:42:57.778Z,93182.50
2023-03-11T00:45:26.771Z,93193.06
2023-03-11T00:47:54.816Z,93179.84
2023-03-11T00:50:24.378Z,93181.72
2023-03-11T00:52:51.036Z,93171.91
2023-03-11T00:55:22.875Z,93151.84
2023-03-11T00:57:54.920Z,93147.63
2023-03-11T01:00:23.013Z,93134.41
2023-03-11T01:02:53.545Z,93139.69
2023-03-11T01:05:23.610Z,93142.31
2023-03-11T01:07:55.041Z,93138.63
2023-03-11T01:10:23.022Z,93140.50
2023-03-11T01:12:52.536Z,93129.91
2023-03-11T01:15:26.737Z,93125.66
2023-03-11T01:17:53.487Z,93119.59
2023-03-11T01:20:22.241Z,93120.38
2023-03-11T01:22:49.345Z,93114.31
2023-03-11T01:25:21.719Z,93103.75
2023-03-11T01:27:50.749Z,93091.31
2023-03-11T01:30:22.876Z,93087.09
2023-03-11T01:32:53.503Z,93088.66
2023-03-11T01:35:23.311Z,93079.97
2023-03-11T01:37:53.035Z,93063.31
2023-03-11T01:40:26.437Z,93074.69
2023-03-11T01:42:54.251Z,93065.16
2023-03-11T01:45:26.987Z,93050.91
2023-03-11T01:47:58.341Z,93049.03
2023-03-11T01:50:27.780Z,93038.75
2023-03-11T01:52:54.534Z,93041.91
2023-03-11T01:55:21.234Z,93050.91
2023-03-11T01:57:48.043Z,93059.88
2023-03-11T02:00:17.960Z,93081.03
2023-03-11T02:02:52.444Z,93087.09
2023-03-11T02:05:22.566Z,93084.44
2023-03-11T02:07:49.386Z,93092.38
2023-03-11T02:10:16.138Z,93092.38
2023-03-11T02:12:43.551Z,93083.13
2023-03-11T02:15:14.713Z,93093.94
2023-03-11T02:17:41.500Z,93102.16
2023-03-11T02:20:23.618Z,93107.44
2023-03-11T02:22:50.387Z,93118.03
2023-03-11T02:25:27.626Z,93110.88
2023-03-11T02:27:56.504Z,93125.94
2023-03-11T02:30:24.409Z,93121.72
2023-03-11T02:32:51.658Z,93122.50
2023-03-11T02:38:03.881Z,93112.72
2023-03-11T02:40:44.030Z,93116.44
2023-03-11T02:43:14.580Z,93107.44
2023-03-11T02:45:42.490Z,93114.31
2023-03-11T02:48:12.359Z,93111.16
2023-03-11T02:50:39.046Z,93127.00
2023-03-11T02:53:07.474Z,93142.84
2023-03-11T02:55:34.218Z,93144.44
2023-03-11T02:58:02.443Z,93128.59
2023-03-11T03:00:31.300Z,93131.47
2023-03-11T03:03:00.314Z,93137.56
2023-03-11T03:05:27.314Z,93122.78
2023-03-11T03:07:54.000Z,93133.34
2023-03-11T03:10:21.108Z,93128.06
2023-03-11T03:12:47.824Z,93127.00
2023-03-11T03:15:16.069Z,93131.47
2023-03-11T03:17:42.896Z,93134.94
2023-03-11T03:20:11.700Z,93137.56
2023-03-11T03:22:40.636Z,93137.81
2023-03-11T03:25:07.976Z,93134.41
2023-03-11T03:27:34.751Z,93136.00
2023-03-11T03:30:04.479Z,93130.69
2023-03-11T03:32:36.026Z,93131.75
2023-03-11T03:35:05.959Z,93140.47
2023-03-11T03:37:39.209Z,93149.19
2023-03-11T03:40:09.917Z,93130.69
2023-03-11T03:42:38.494Z,93124.59
2023-03-11T03:45:06.368Z,93129.13
2023-03-11T03:47:35.920Z,93129.91
2023-03-11T03:50:08.103Z,93123.84
2023-03-11T03:52:37.807Z,93123.84
2023-03-11T03:55:05.346Z,93122.78
2023-03-11T03:57:33.276Z,93115.91
2023-03-11T04:00:04.431Z,93107.97
2023-03-11T04:02:32.101Z,93119.31
2023-03-11T04:04:58.828Z,93118.56
2023-03-11T04:07:25.461Z,93123.03
2023-03-11T04:09:58.245Z,93123.84
2023-03-11T04:12:25.008Z,93122.25
2023-03-11T04:14:56.394Z,93122.25
2023-03-11T04:17:25.362Z,93122.25
2023-03-11T04:19:52.152Z,93124.91
2023-03-11T04:22:18.894Z,93125.91
2023-03-11T04:24:46.468Z,93126.72
2023-03-11T04:27:13.129Z,93121.19
2023-03-11T04:29:39.863Z,93127.53
2023-03-11T04:32:06.912Z,93125.91
2023-03-11T04:34:37.741Z,93116.16
2023-03-11T04:37:04.437Z,93114.56
2023-03-11T04:39:33.337Z,93122.25
2023-03-11T04:42:02.287Z,93123.84
2023-03-11T04:44:30.295Z,93121.44
2023-03-11T04:46:57.070Z,93125.91
2023-03-11T04:49:28.490Z,93124.09
2023-03-11T04:51:55.236Z,93121.44
2023-03-11T04:54:24.224Z,93127.53
2023-03-11T04:56:55.573Z,93126.72
2023-03-11T04:59:22.206Z,93126.72
2023-03-11T05:01:53.892Z,93137.31
2023-03-11T05:04:25.475Z,93136.50
2023-03-11T05:06:54.437Z,93147.06
2023-03-11T05:09:21.735Z,93147.06
2023-03-11T05:11:49.491Z,93145.47
2023-03-11T05:14:16.228Z,93151.56
2023-03-11T05:16:45.107Z,93160.28
2023-03-11T05:19:34.583Z,93156.03
2023-03-11T05:22:05.655Z,93154.22
2023-03-11T05:24:35.452Z,93162.91
2023-03-11T05:27:07.328Z,93157.63
2023-03-11T05:29:33.970Z,93166.63
2023-03-11T05:32:00.738Z,93168.19
2023-03-11T05:34:29.682Z,93175.34
2023-03-11T05:36:59.129Z,93173.47
2023-03-11T05:39:26.805Z,93166.63
2023-03-11T05:41:56.924Z,93176.13
2023-03-11T05:44:26.678Z,93184.06
2023-03-11T05:46:53.513Z,93182.47
2023-03-11T05:49:24.932Z,93184.06
2023-03-11T05:51:55.660Z,93184.06
2023-03-11T05:54:23.411Z,93191.97
2023-03-11T05:56:52.484Z,93199.91
2023-03-11T05:59:21.229Z,93206.25
2023-03-11T06:01:48.869Z,93210.47
2023-03-11T06:04:18.047Z,93214.16
2023-03-11T06:06:44.870Z,93214.97
2023-03-11T06:09:12.977Z,93217.88
2023-03-11T06:11:40.704Z,93224.75
2023-03-11T06:14:12.060Z,93216.28
2023-03-11T06:16:39.577Z,93221.31
2023-03-11T06:19:08.529Z,93223.69
2023-03-11T06:21:40.122Z,93226.31
2023-03-11T06:24:07.202Z,93225.56
2023-03-11T06:26:37.005Z,93227.38
2023-03-11T06:29:09.263Z,93231.63
2023-03-11T06:31:37.285Z,93227.38
2023-03-11T06:34:06.424Z,93228.44
2023-03-11T06:36:39.067Z,93223.97
2023-03-11T06:39:05.898Z,93219.47
2023-03-11T06:41:38.072Z,93231.63
2023-03-11T06:44:07.041Z,93234.25
2023-03-11T06:46:33.722Z,93223.16
2023-03-11T06:49:00.447Z,93230.03
2023-03-11T06:51:27.324Z,93230.03
2023-03-11T06:53:57.248Z,93227.38
2023-03-11T06:56:25.320Z,93231.63
2023-03-11T06:58:53.353Z,93231.63
2023-03-11T07:01:27.350Z,93236.91
2023-03-11T07:03:56.845Z,93228.44
2023-03-11T07:06:29.886Z,93233.22
2023-03-11T07:08:59.226Z,93239.53
2023-03-11T07:11:27.532Z,93243.78
2023-03-11T07:13:55.911Z,93241.94
2023-03-11T07:16:27.892Z,93249.88
2023-03-11T07:19:02.901Z,93236.91
2023-03-11T07:21:30.165Z,93238.50
2023-03-11T07:23:59.196Z,93225.31
2023-03-11T07:26:28.677Z,93229.53
2023-03-11T07:28:55.834Z,93225.31
2023-03-11T07:31:27.507Z,93208.38
2023-03-11T07:33:55.377Z,93211.03
2023-03-11T07:36:26.180Z,93208.38
2023-03-11T07:39:01.146Z,93198.59
2023-03-11T07:41:33.363Z,93201.25
2023-03-11T07:44:00.607Z,93203.63
2023-03-11T07:46:28.106Z,93200.47
2023-03-11T07:48:57.654Z,93194.66
2023-03-11T07:51:28.605Z,93187.53
2023-03-11T07:53:59.088Z,93185.41
2023-03-11T07:56:26.970Z,93185.94
2023-03-11T07:58:53.934Z,93179.34
2023-03-11T08:01:24.940Z,93177.75
2023-03-11T08:03:56.985Z,93161.38
2023-03-11T08:06:25.599Z,93161.38
2023-03-11T08:08:52.428Z,93155.56
2023-03-11T08:11:19.484Z,93153.44
2023-03-11T08:13:49.833Z,93139.97
2023-03-11T08:16:19.823Z,93127.00
2023-03-11T08:18:47.629Z,93137.31
2023-03-11T08:21:16.409Z,93129.91
2023-03-11T08:23:44.096Z,93122.78
2023-03-11T08:26:12.088Z,93123.31
2023-03-11T08:28:39.330Z,93126.72
2023-03-11T08:31:19.336Z,93116.44
2023-03-11T08:33:50.019Z,93106.66
2023-03-11T08:36:17.306Z,93109.84
2023-03-11T08:38:46.713Z,93111.13
2023-03-11T08:41:16.269Z,93099.50
2023-03-11T08:43:45.109Z,93101.06
2023-03-11T08:46:47.850Z,93104.28
2023-03-11T08:49:16.904Z,93101.88
2023-03-11T08:51:43.714Z,93090.22
2023-03-11T08:54:12.912Z,93085.75
2023-03-11T08:56:39.689Z,93082.03
2023-03-11T08:59:08.539Z,93086.00
2023-03-11T09:01:37.543Z,93082.31
2023-03-11T09:04:04.560Z,93086.53
2023-03-11T09:06:33.427Z,93073.06
2023-03-11T09:09:03.096Z,93068.31
2023-03-11T09:11:31.896Z,93071.47
2023-03-11T09:13:58.611Z,93064.59
2023-03-11T09:16:28.094Z,93068.56
2023-03-11T09:18:54.839Z,93069.09
2023-03-11T09:21:24.046Z,93076.78
2023-03-11T09:23:52.929Z,93070.16
2023-03-11T09:26:19.681Z,93063.53
2023-03-11T09:28:49.388Z,93060.88
2023-03-11T09:31:18.645Z,93053.75
2023-03-11T09:33:46.141Z,93059.03
2023-03-11T09:36:17.860Z,93058.75
2023-03-11T09:38:44.627Z,93056.09
2023-03-11T09:41:17.558Z,93048.16
2023-03-11T09:43:56.391Z,93048.72
2023-03-11T09:46:45.698Z,93053.72
2023-03-11T09:49:19.962Z,93050.31
2023-03-11T09:51:49.638Z,93051.88
2023-03-11T09:54:18.489Z,93042.88
2023-03-11T09:56:47.412Z,93042.34
2023-03-11T09:59:29.261Z,93035.97
2023-03-11T10:01:58.209Z,93032.53
2023-03-11T10:04:40.154Z,93040.75
2023-03-11T10:07:12.652Z,93034.13
2023-03-11T10:09:46.091Z,93052.38
2023-03-11T10:12:46.880Z,93057.66
2023-03-11T10:15:16.604Z,93044.72
2023-03-11T10:18:18.596Z,93052.38
2023-03-11T10:21:01.011Z,93057.66
2023-03-11T10:23:46.348Z,93066.41
2023-03-11T10:26:38.945Z,93052.38
2023-03-11T10:29:24.881Z,93060.59
2023-03-11T10:32:13.481Z,93059.78
2023-03-11T10:34:45.016Z,93063.50
2023-03-11T10:37:26.289Z,93053.69
2023-03-11T10:39:55.588Z,93057.66
2023-03-11T10:42:26.070Z,93056.88
2023-03-11T10:44:55.019Z,93048.94
2023-03-11T10:47:25.634Z,93054.75
2023-03-11T10:49:55.056Z,93058.75
2023-03-11T10:52:21.759Z,93064.81
2023-03-11T10:54:49.324Z,93074.63
2023-03-11T10:57:25.637Z,93078.03
2023-03-11T10:59:53.672Z,93081.50
2023-03-11T11:02:26.944Z,93090.50
2023-03-11T11:05:21.735Z,93087.84
2023-03-11T11:07:54.745Z,93093.16
2023-03-11T11:10:25.072Z,93088.91
2023-03-11T11:13:13.553Z,93082.03
2023-03-11T11:16:04.639Z,93069.88
2023-03-11T11:18:47.638Z,93064.31
2023-03-11T11:21:16.617Z,93062.47
2023-03-11T11:24:01.035Z,93053.75
2023-03-11T11:26:27.724Z,93057.97
2023-03-11T11:29:10.388Z,93051.88
2023-03-11T11:31:41.183Z,93058.22
2023-03-11T11:34:27.132Z,93055.31
2023-03-11T11:36:57.217Z,93043.94
2023-03-11T11:39:24.581Z,93038.66
2023-03-11T11:41:53.352Z,93033.38
2023-03-11T11:44:23.143Z,93024.91
2023-03-11T11:46:55.826Z,93024.91
2023-03-11T11:49:31.778Z,93018.03
2023-03-11T11:52:26.044Z,93008.53
2023-03-11T11:55:04.902Z,93003.22
2023-03-11T11:57:34.751Z,92999.78
2023-03-11T12:00:05.945Z,92993.16
2023-03-11T12:02:45.947Z,92999.25
2023-03-11T12:05:19.811Z,92994.75
2023-03-11T12:07:49.153Z,92992.41
2023-03-11T12:10:40.876Z,92991.59
2023-03-11T12:13:29.238Z,92991.59
2023-03-11T12:16:04.693Z,92986.31
2023-03-11T12:18:44.938Z,92986.31
2023-03-11T12:21:17.214Z,92988.94
2023-03-11T12:24:00.715Z,92996.88
2023-03-11T12:26:28.331Z,92993.16
2023-03-11T12:29:05.047Z,92990.81
2023-03-11T12:31:35.309Z,92990.00
2023-03-11T12:34:03.289Z,92989.50
2023-03-11T12:36:32.261Z,92991.59
2023-03-11T12:39:02.159Z,92993.16
2023-03-11T12:41:31.729Z,92996.88
2023-03-11T12:44:00.530Z,92996.88
2023-03-11T12:46:58.956Z,92997.94
2023-03-11T12:49:26.307Z,93000.59
2023-03-11T12:52:11.492Z,93002.16
2023-03-11T12:54:46.142Z,92999.53
2023-03-11T12:57:19.098Z,92996.88
2023-03-11T12:59:45.667Z,92996.88
2023-03-11T13:02:44.675Z,93007.47
2023-03-11T13:05:41.647Z,93016.47
2023-03-11T13:08:12.545Z,93017.25
2023-03-11T13:10:42.546Z,93021.75
2023-03-11T13:13:35.227Z,93025.19
2023-03-11T13:16:17.629Z,93032.31
2023-03-11T13:18:48.106Z,93043.16
2023-03-11T13:21:32.849Z,93050.31
2023-03-11T13:24:38.038Z,93060.91
2023-03-11T13:27:10.804Z,93060.91
2023-03-11T13:29:47.835Z,93063.53
2023-03-11T13:32:20.367Z,93099.75
2023-03-11T13:34:59.030Z,93104.00
2023-03-11T13:37:25.615Z,93125.97
2023-03-11T13:40:14.158Z,93129.66
2023-03-11T13:42:44.808Z,93140.25
2023-03-11T13:45:26.600Z,93136.00
2023-03-11T13:47:57.050Z,93138.66
2023-03-11T13:50:32.333Z,93149.25
2023-03-11T13:52:59.736Z,93151.59
2023-03-11T13:55:40.441Z,93159.00
2023-03-11T13:58:19.434Z,93163.53
2023-03-11T14:00:53.561Z,93160.59
2023-03-11T14:03:22.266Z,93147.66
2023-03-11T14:06:08.888Z,93138.66
2023-03-11T14:08:36.634Z,93135.22
2023-03-11T14:11:24.374Z,93140.78
2023-03-11T14:13:51.406Z,93147.38
2023-03-11T14:16:30.643Z,93140.78
2023-03-11T14:19:16.425Z,93142.38
2023-03-11T14:21:43.632Z,93142.38
2023-03-11T14:24:19.569Z,93146.28
2023-03-11T14:26:48.028Z,93147.66
2023-03-11T14:29:21.483Z,93152.94
2023-03-11T14:31:48.318Z,93151.38
2023-03-11T14:34:22.878Z,93150.53
2023-03-11T14:36:59.435Z,93150.53
2023-03-11T14:39:33.016Z,93148.72
2023-03-11T14:42:19.091Z,93151.38
2023-03-11T14:45:15.478Z,93152.38
2023-03-11T14:47:46.495Z,93157.94
2023-03-11T14:50:19.416Z,93164.81
2023-03-11T14:53:07.596Z,93161.34
2023-03-11T14:55:40.567Z,93167.72
2023-03-11T14:58:24.604Z,93166.13
2023-03-11T15:01:00.383Z,93174.06
2023-03-11T15:03:33.515Z,93185.16
2023-03-11T15:06:07.460Z,93200.50
2023-03-11T15:08:56.521Z,93206.06
2023-03-11T15:11:25.317Z,93225.09
2023-03-11T15:13:52.566Z,93220.06
2023-03-11T15:16:36.035Z,93222.72
2023-03-11T15:19:30.113Z,93231.47
2023-03-11T15:22:23.714Z,93240.16
2023-03-11T15:24:57.450Z,93250.22
2023-03-11T15:27:29.205Z,93252.88
2023-03-11T15:29:55.945Z,93260.81
2023-03-11T15:32:32.027Z,93263.44
2023-03-11T15:35:22.823Z,93268.72
2023-03-11T15:38:12.101Z,93276.66
2023-03-11T15:40:45.713Z,93283.81
2023-03-11T15:43:20.710Z,93289.63
2023-03-11T15:45:49.056Z,93285.66
2023-03-11T15:48:17.344Z,93310.25
2023-03-11T15:51:04.264Z,93316.34
2023-03-11T15:53:32.441Z,93321.63
2023-03-11T15:56:07.255Z,93331.44
2023-03-11T15:58:38.960Z,93337.50
2023-03-11T16:01:08.516Z,93351.00
2023-03-11T16:03:35.308Z,93357.06
2023-03-11T16:06:06.608Z,93361.56
2023-03-11T16:08:34.659Z,93367.63
2023-03-11T16:11:06.734Z,93375.56
2023-03-11T16:13:35.667Z,93380.88
2023-03-11T16:16:04.917Z,93383.50
2023-03-11T16:18:35.838Z,93394.91
2023-03-11T16:21:04.786Z,93390.91
2023-03-11T16:23:48.587Z,93397.78
2023-03-11T16:26:17.299Z,93405.72
2023-03-11T16:28:44.001Z,93413.66
2023-03-11T16:31:10.852Z,93433.75
2023-03-11T16:33:37.672Z,93427.94
2023-03-11T16:36:04.707Z,93441.16
2023-03-11T16:38:31.640Z,93450.69
2023-03-11T16:41:04.171Z,93449.88
2023-03-11T16:43:33.169Z,93460.44
2023-03-11T16:46:02.986Z,93466.00
2023-03-11T16:48:34.908Z,93475.53
2023-03-11T16:51:04.237Z,93481.88
2023-03-11T16:53:31.004Z,93491.41
2023-03-11T16:55:59.931Z,93493.50
2023-03-11T16:58:26.539Z,93510.97
2023-03-11T17:00:53.277Z,93514.66
2023-03-11T17:03:21.884Z,93522.59
2023-03-11T17:05:51.701Z,93537.41
2023-03-11T17:08:20.644Z,93546.41
2023-03-11T17:10:50.880Z,93552.75
2023-03-11T17:13:22.180Z,93567.56
2023-03-11T17:16:01.600Z,93580.25
2023-03-11T17:18:28.379Z,93585.53
2023-03-11T17:20:57.390Z,93601.41
2023-03-11T17:23:26.352Z,93611.97
2023-03-11T17:25:53.360Z,93605.88
2023-03-11T17:28:20.230Z,93609.56
2023-03-11T17:30:46.952Z,93628.06
2023-03-11T17:33:15.764Z,93636.81
2023-03-11T17:35:42.542Z,93632.81
2023-03-11T17:38:12.577Z,93640.50
2023-03-11T17:40:42.419Z,93645.78
2023-03-11T17:43:09.121Z,93654.75
2023-03-11T17:45:37.614Z,93653.16
2023-03-11T17:48:05.429Z,93665.34
2023-03-11T17:50:36.273Z,93663.75
2023-03-11T17:53:05.898Z,93679.63
2023-03-11T17:55:38.697Z,93689.41
2023-03-11T17:58:05.339Z,93691.25
2023-03-11T18:00:35.208Z,93693.88
2023-03-11T18:03:02.052Z,93695.47
2023-03-11T18:05:30.924Z,93695.75
2023-03-11T18:07:59.881Z,93705.50
2023-03-11T18:10:26.565Z,93706.56
2023-03-11T18:12:56.339Z,93718.72
2023-03-11T18:15:25.843Z,93726.94
2023-03-11T18:17:52.627Z,93732.22
2023-03-11T18:20:19.446Z,93731.41
2023-03-11T18:22:46.862Z,93733.28
2023-03-11T18:25:14.005Z,93742.00
2023-03-11T18:27:40.984Z,93729.00
2023-03-11T18:30:08.459Z,93735.91
2023-03-11T18:32:37.667Z,93738.81
2023-03-11T18:35:04.664Z,93748.56
2023-03-11T18:37:35.708Z,93753.06
2023-03-11T18:40:05.866Z,93757.31
2023-03-11T18:42:35.378Z,93768.94
2023-03-11T18:45:02.116Z,93760.47
2023-03-11T18:47:28.870Z,93764.69
2023-03-11T18:49:55.530Z,93762.06
2023-03-11T18:52:22.665Z,93770.00
2023-03-11T18:54:49.375Z,93767.34
2023-03-11T18:57:18.272Z,93764.69
2023-03-11T18:59:44.956Z,93764.94
2023-03-11T19:02:13.929Z,93764.16
2023-03-11T19:04:43.805Z,93769.44
2023-03-11T19:07:10.508Z,93774.72
2023-03-11T19:09:37.140Z,93772.63
2023-03-11T19:12:06.991Z,93785.31
2023-03-11T19:14:33.763Z,93789.78
2023-03-11T19:17:02.724Z,93793.47
2023-03-11T19:19:34.026Z,93794.28
2023-03-11T19:22:00.879Z,93801.66
2023-03-11T19:24:29.857Z,93802.47
2023-03-11T19:27:04.353Z,93801.66
2023-03-11T19:29:31.046Z,93813.03
2023-03-11T19:32:01.709Z,93816.72
2023-03-11T19:34:32.550Z,93817.50
2023-03-11T19:37:01.435Z,93820.16
2023-03-11T19:39:28.076Z,93843.16
2023-03-11T19:41:55.558Z,93835.47
2023-03-11T19:44:24.475Z,93849.50
2023-03-11T19:46:53.293Z,93850.53
2023-03-11T19:49:22.139Z,93861.13
2023-03-11T19:51:50.603Z,93865.59
2023-03-11T19:54:20.108Z,93869.28
2023-03-11T19:56:48.973Z,93869.28
2023-03-11T19:59:17.894Z,93868.50
2023-03-11T20:01:46.188Z,93874.56
2023-03-11T20:04:15.281Z,93878.25
2023-03-11T20:06:42.167Z,93877.22
2023-03-11T20:09:12.220Z,93883.56
2023-03-11T20:11:46.385Z,93894.13
2023-03-11T20:14:14.513Z,93898.88
2023-03-11T20:16:41.489Z,93908.41
2023-03-11T20:19:08.446Z,93906.78
2023-03-11T20:21:39.348Z,93915.50
2023-03-11T20:24:08.971Z,93909.66
2023-03-11T20:26:37.638Z,93912.09
2023-03-11T20:29:04.473Z,93914.19
2023-03-11T20:31:31.716Z,93914.97
2023-03-11T20:34:01.858Z,93918.66
2023-03-11T20:36:33.232Z,93923.16
2023-03-11T20:39:01.049Z,93923.16
2023-03-11T20:41:28.206Z,93926.59
2023-03-11T20:43:59.136Z,93939.00
2023-03-11T20:46:28.232Z,93928.44
2023-03-11T20:48:56.396Z,93921.56
2023-03-11T20:51:26.181Z,93932.13
2023-03-11T20:53:57.284Z,93931.31
2023-03-11T20:56:26.041Z,93926.25
2023-03-11T20:58:56.588Z,93931.53
2023-03-11T21:01:28.690Z,93928.91
2023-03-11T21:04:00.783Z,93932.38
2023-03-11T21:06:42.487Z,93937.09
2023-03-11T21:09:13.523Z,93935.25
2023-03-11T21:11:40.412Z,93936.28
2023-03-11T21:14:09.715Z,93930.22
2023-03-11T21:16:39.160Z,93924.13
2023-03-11T21:19:13.106Z,93936.28
2023-03-11T21:21:40.407Z,93934.13
2023-03-11T21:24:07.420Z,93939.19
2023-03-11T21:26:36.480Z,93943.66
2023-03-11T21:29:03.323Z,93942.06
2023-03-11T21:31:32.744Z,93943.91
2023-03-11T21:33:59.988Z,93949.22
2023-03-11T21:36:28.072Z,93951.84
2023-03-11T21:38:56.144Z,93960.00
2023-03-11T21:41:25.131Z,93949.44
2023-03-11T21:43:57.654Z,93954.72
2023-03-11T21:46:31.246Z,93961.06
2023-03-11T21:49:01.213Z,93962.09
2023-03-11T21:51:35.579Z,93962.09
2023-03-11T21:54:06.013Z,93961.28
2023-03-11T21:56:32.799Z,93972.69
2023-03-11T21:58:59.573Z,93969.47
2023-03-11T22:01:26.450Z,93986.13
2023-03-11T22:03:55.239Z,93990.63
2023-03-11T22:06:23.480Z,93989.81
2023-03-11T22:08:50.339Z,93986.38
2023-03-11T22:11:21.954Z,93991.66
2023-03-11T22:13:51.257Z,93991.66
2023-03-11T22:16:21.008Z,93986.59
2023-03-11T22:18:48.993Z,93988.22
2023-03-11T22:21:18.671Z,93984.75
2023-03-11T22:23:46.364Z,93995.31
2023-03-11T22:26:15.921Z,94006.94
2023-03-11T22:28:45.032Z,94009.59
2023-03-11T22:31:13.277Z,94012.22
2023-03-11T22:33:44.179Z,94012.22
2023-03-11T22:36:13.104Z,94022.78
2023-03-11T22:38:42.303Z,94024.09
2023-03-11T22:41:09.085Z,94030.16
2023-03-11T22:43:38.569Z,94038.91
2023-03-11T22:46:07.826Z,94033.84
2023-03-11T22:48:37.441Z,94044.44
2023-03-11T22:51:05.583Z,94039.94
2023-03-11T22:53:37.047Z,94037.53
2023-03-11T22:56:12.081Z,94047.31
2023-03-11T22:58:39.044Z,94051.78
2023-03-11T23:01:08.442Z,94065.00
2023-03-11T23:03:37.900Z,94061.56
2023-03-11T23:06:09.061Z,94063.41
2023-03-11T23:08:35.898Z,94064.44
2023-03-11T23:11:08.440Z,94061.81
2023-03-11T23:13:36.882Z,94059.16
2023-03-11T23:16:13.714Z,94069.72
2023-03-11T23:18:44.526Z,94062.03
2023-03-11T23:21:32.938Z,94068.38
2023-03-11T23:24:00.773Z,94069.19
2023-03-11T23:26:30.239Z,94064.94
2023-03-11T23:28:58.581Z,94064.13
2023-03-11T23:31:29.099Z,94071.25
2023-03-11T23:33:55.970Z,94061.97
2023-03-11T23:36:23.570Z,94072.28
2023-03-11T23:38:50.984Z,94075.97
2023-03-11T23:41:23.774Z,94080.47
2023-03-11T23:43:51.359Z,94074.34
2023-03-11T23:46:21.183Z,94078.84
2023-03-11T23:48:50.162Z,94084.38
2023-03-11T23:51:16.820Z,94084.16
2023-03-11T23:53:44.749Z,94082.78
2023-03-11T23:56:15.959Z,94082.78
2023-03-11T23:58:42.651Z,94080.94
